• Join FlightAware (Why Join?)
  • Login
  • US Flag 
08:23PM EDT


 

Airport Tracker/Info


-or-


 

Live Flight TrackerFlight Track Log ✈ N32LJ ✈ 23-Jun-2013 ✈ KJKA - 1M5

Flight Track Log - Related Links

Times and Time Zones

All times are in EDT time to prevent confusion due to time zone crossing. See the N32LJ flight status page for this flight to view local times or setup timezone preferences in your user account.

Time Position Orientation Groundspeed Altitude Reporting Facility
EDT Latitude Longitude Course Direction KTS MPH feet Rate Location/Type
06:35PM 30.3361 -87.7106 12° North 187 215 2,800  Level Jacksonville Center
06:36PM 30.4119 -87.6925 12° North 247 284 3,000 780 Climbing Jacksonville Center
06:37PM 30.4667 -87.6786 12° North 252 290 4,600 1,560 Climbing Jacksonville Center
06:38PM 30.5156 -87.6617 17° North 223 257 6,200 1,560 Climbing Jacksonville Center
06:39PM 30.5683 -87.6425 17° North 204 235 7,800 1,500 Climbing Jacksonville Center
06:40PM 30.6294 -87.6236 15° North 194 223 9,500 1,440 Climbing Houston Center
06:41PM 30.6756 -87.6239 360° North 185 213 10,700 1,320 Climbing Jacksonville Center
06:42PM 30.7314 -87.6361 349° North 190 219 12,000 1,320 Climbing Jacksonville Center
06:43PM 30.7869 -87.6536 345° North 201 231 13,400 1,320 Climbing Jacksonville Center
06:44PM 30.8458 -87.6444 North 201 231 14,700 1,320 Climbing Jacksonville Center
06:45PM 30.9028 -87.6303 12° North 201 231 16,100 1,320 Climbing Jacksonville Center
06:46PM 30.9619 -87.6114 15° North 201 231 17,400 1,260 Climbing Jacksonville Center
06:47PM 31.0189 -87.5975 12° North 201 231 18,700 1,260 Climbing Jacksonville Center
06:49PM 31.1244 -87.5728 11° North 214 246 20,800 1,080 Climbing Atlanta Center
06:50PM 31.1831 -87.5581 12° North 214 246 21,700 900 Climbing Atlanta Center
06:51PM 31.2400 -87.5431 13° North 209 241 22,700 840 Climbing Atlanta Center
06:52PM 31.2989 -87.5283 12° North 209 241 23,400 660 Climbing Atlanta Center
06:53PM 31.3597 -87.5136 12° North 209 241 24,100 660 Climbing Atlanta Center
06:54PM 31.4208 -87.4967 13° North 219 252 24,800 300 Climbing Atlanta Center
06:55PM 31.4817 -87.4794 14° North 232 267 24,800  Level Atlanta Center
06:56PM 31.5511 -87.4625 12° North 238 274 24,800  Level Atlanta Center
06:57PM 31.6225 -87.4458 11° North 244 281 24,800  Level Atlanta Center
06:58PM 31.6939 -87.4264 13° North 250 288 24,800 60 Level Atlanta Center
06:59PM 31.7675 -87.4097 11° North 255 293 25,000 60 Climbing Atlanta Center
07:00PM 31.8389 -87.3928 11° North 260 299 25,000  Level Atlanta Center
07:01PM 31.9083 -87.3733 13° North 260 299 25,000  Level Atlanta Center
07:02PM 31.9778 -87.3514 15° North 260 299 25,000  Level Atlanta Center
07:03PM 32.0492 -87.3322 13° North 260 299 25,000  Level Atlanta Center
07:04PM 32.1228 -87.3128 13° North 260 299 25,000  Level Atlanta Center
07:05PM 32.1942 -87.2958 11° North 260 299 25,000  Level Atlanta Center
07:06PM 32.2636 -87.2736 15° North 260 299 25,000  Level Atlanta Center
07:07PM 32.3372 -87.2567 11° North 260 299 25,000  Level Atlanta Center
07:08PM 32.4106 -87.2372 13° North 260 299 25,000  Level Atlanta Center
07:09PM 32.4842 -87.2203 11° North 260 299 25,000  Level Atlanta Center
07:10PM 32.5536 -87.1981 15° North 260 299 25,000  Level Atlanta Center
07:11PM 32.6292 -87.1811 11° North 260 299 25,000  Level Atlanta Center
07:12PM 32.7008 -87.1589 15° North 260 299 25,000  Level Atlanta Center
07:13PM 32.7742 -87.1417 11° North 255 293 25,000  Level Atlanta Center
07:14PM 32.8436 -87.1194 15° North 260 299 25,000  Level Atlanta Center
07:15PM 32.9128 -87.1047 10° North 260 299 25,000  Level Atlanta Center
07:16PM 32.9906 -87.0825 13° North 260 299 25,000  Level Atlanta Center
07:17PM 33.0686 -87.0581 15° North 260 299 25,000  Level Atlanta Center
07:18PM 33.1333 -87.0478 North 260 299 25,000  Level Atlanta Center
07:19PM 33.2114 -87.0231 15° North 266 306 25,000  Level Atlanta Center
07:20PM 33.2806 -87.0056 12° North 267 307 25,000  Level Atlanta Center
07:21PM 33.3606 -86.9811 14° North 262 302 25,000  Level Atlanta Center
07:22PM 33.4361 -86.9611 12° North 262 302 25,000  Level Atlanta Center
07:23PM 33.5097 -86.9414 13° North 262 302 25,000  Level Atlanta Center
07:24PM 33.5831 -86.9214 13° North 262 302 25,000  Level Atlanta Center
07:25PM 33.6567 -86.9014 13° North 268 308 25,000  Level Atlanta Center
07:26PM 33.7300 -86.8889 North 268 308 25,000  Level Atlanta Center
07:27PM 33.8053 -86.8789 North 263 303 25,000  Level Atlanta Center
07:28PM 33.8786 -86.8711 North 263 303 25,000  Level Atlanta Center
07:29PM 33.9519 -86.8586 North 258 297 25,000  Level Atlanta Center
07:30PM 34.0253 -86.8486 North 258 297 25,000  Level Atlanta Center
07:31PM 34.1006 -86.8358 North 258 297 25,000  Level Atlanta Center
07:32PM 34.1739 -86.8283 North 258 297 25,000  Level Atlanta Center
07:33PM 34.2472 -86.8156 North 258 297 25,000  Level Atlanta Center
07:34PM 34.3225 -86.8056 North 258 297 25,000  Level Atlanta Center
07:35PM 34.3978 -86.7953 North 258 297 25,000  Level Atlanta Center
07:36PM 34.4733 -86.7828 North 263 303 25,000  Level Atlanta Center
07:37PM 34.5486 -86.7750 North 263 303 25,000  Level Atlanta Center
07:38PM 34.6239 -86.7650 North 268 308 25,000 -180 Level Atlanta Center
07:39PM 34.6994 -86.7522 North 268 308 24,700 -180 Descending Atlanta Center
07:44PM 35.1150 -86.6940 North 272 313 23,900 -180 Descending FlightAware
07:45PM 35.1620 -86.6870 North 273 314 23,900 -1,140 Level FlightAware
07:46PM 35.2300 -86.6780 North 309 356 22,300 -960 Descending FlightAware
07:47PM 35.3450 -86.6610 North 286 329 22,000 -240 Descending FlightAware
07:47PM 35.3737 -86.6568 North 287 330 21,900 -1,200 Descending FlightAware ADS-B
07:48PM 35.4610 -86.6440 North 305 351 20,400 -1,380 Descending FlightAware
07:49PM 35.5240 -86.6350 North 308 354 19,500 -1,320 Descending FlightAware
07:50PM 35.5800 -86.6270 North 305 351 18,600 -1,320 Descending FlightAware
07:51PM 35.6380 -86.6180 North 302 348 17,700 -1,380 Descending FlightAware
07:51PM 35.6910 -86.6100 North 296 341 16,800 -1,320 Descending FlightAware
07:52PM 35.7530 -86.6010 North 292 336 15,900 -1,020 Descending FlightAware
07:53PM 35.8110 -86.5930 North 285 328 15,300 -1,140 Descending FlightAware
07:53PM 35.8640 -86.5850 North 287 330 14,300 -1,500 Descending FlightAware
07:54PM 35.9190 -86.5760 North 280 322 13,300 -1,440 Descending FlightAware
07:55PM 35.9740 -86.5680 North 278 320 12,300 -1,440 Descending FlightAware
07:55PM 36.0270 -86.5610 North 277 319 11,300 -1,500 Descending FlightAware
07:56PM 36.0790 -86.5530 North 278 320 10,300 -1,260 Descending FlightAware
07:57PM 36.1140 -86.5480 North 269 310 9,900 -480 Descending FlightAware
07:57PM 36.1430 -86.5440 North 255 293 9,900  Level FlightAware
07:58PM 36.1920 -86.5370 North 245 282 9,900 -600 Level FlightAware
07:58PM 36.2250 -86.5320 North 264 304 9,200 -1,680 Descending FlightAware
07:59PM 36.2620 -86.5260 North 278 320 8,300 -1,260 Descending FlightAware
07:59PM 36.3040 -86.5200 North 256 295 7,900 -420 Descending FlightAware
08:00PM 36.3300 -86.5160 North 239 275 7,900 -180 Level FlightAware
08:00PM 36.3790 -86.5080 North 240 276 7,700 -1,620 Descending FlightAware
08:01PM 36.4150 -86.5030 North 260 299 6,000 -1,980 Descending FlightAware
08:01PM 36.4410 -86.4990 North 260 299 6,000 -480 Level FlightAware
08:02PM 36.4839 -86.4933 North 251 289 5,500 2,880 Descending Memphis Center
08:03PM 36.5544 -86.4822 North 251 289 11,000 5,460 Climbing Memphis Center
08:05PM 36.5833 -86.4667 15° North  Level FlightAware Approximate
08:12PM 36.5929 -86.4769 15° North  Level Estimated
08:13PM 36.5929 -86.4769 15° North  Level Estimated
08:14PM 36.5929 -86.4769 15° North  Level Estimated
08:15PM 36.5929 -86.4769 15° North  Level Estimated